Terminal Aerodrome Forecast
Issued by NWS

Home | Current Version | Previous Version | Text Only | Print | Product List | Glossary On
Versions: 1 2 3 4 5 6 7 8 9 10 11 12 13 14 15 16 17
790
FTUS41 KILN 210530
TAFLUK
TAF
KLUK 210530Z 2106/2206 00000KT 1/4SM FG VV002
     FM211200 15003KT 3SM BR FEW003 BKN250
     FM211300 17007KT P6SM BKN250
     FM220000 16003KT P6SM SCT120 BKN250
     FM220200 00000KT 2SM BR FEW003 BKN250=

USA.gov is the U.S. government's official web portal to all federal, state and local government web resources and services.